Brockway, Montana
Current Conditions -  °F | °C
As of 10:15 AM on Sunday 23 Nov 2014 (Local Time) from KGDV Reporting Station
Overcast Overcast  
Wind Chill: 13°   Ceiling: 1800
Heat Index: 27°   Visibility: 3mi
Dew Point: 19°   Wind: 20mph
Humidity: 74%   Direction: 280°W
Pressure: 29.77"   Gusts: 26mph
Location:  47.3°N, 105.77°W
Report Text: KGDV 231715Z AUTO 28017G23KT 3SM BKN018 OVC024 M03/M07 A2977 RMK AO1
Loading
Personal Weather Stations






























Interactive Weather Map New forecast layout! Learn more

10-Day Weather Forecast

Advertisements
Track Severe Weather on mobile